createdAt,value
2023-11-24T00:01:10.788Z,97398.47
2023-11-24T00:03:40.612Z,97384.78
2023-11-24T00:06:07.815Z,97381.44
2023-11-24T00:08:34.949Z,97372.03
2023-11-24T00:11:04.766Z,97369.31
2023-11-24T00:13:32.142Z,97360.72
2023-11-24T00:16:00.055Z,97362.47
2023-11-24T00:18:29.056Z,97365.88
2023-11-24T00:20:57.221Z,97355.44
2023-11-24T00:23:25.288Z,97353.00
2023-11-24T00:25:52.122Z,97359.84
2023-11-24T00:28:19.980Z,97355.50
2023-11-24T00:30:46.773Z,97345.19
2023-11-24T00:33:14.104Z,97336.56
2023-11-24T00:35:41.327Z,97331.50
2023-11-24T00:38:09.975Z,97320.31
2023-11-24T00:40:36.653Z,97323.75
2023-11-24T00:43:04.127Z,97331.53
2023-11-24T00:45:30.857Z,97310.00
2023-11-24T00:47:58.034Z,97313.47
2023-11-24T00:50:25.247Z,97308.38
2023-11-24T00:52:54.674Z,97296.47
2023-11-24T00:55:24.700Z,97305.09
2023-11-24T00:57:54.626Z,97301.50
2023-11-24T01:00:21.451Z,97308.31
2023-11-24T01:02:48.168Z,97300.59
2023-11-24T01:05:14.985Z,97304.06
2023-11-24T01:07:41.759Z,97297.13
2023-11-24T01:10:11.856Z,97288.47
2023-11-24T01:12:39.967Z,97278.16
2023-11-24T01:15:07.518Z,97276.34
2023-11-24T01:17:34.610Z,97275.50
2023-11-24T01:20:01.324Z,97266.13
2023-11-24T01:22:28.061Z,97254.94
2023-11-24T01:24:57.934Z,97252.38
2023-11-24T01:27:24.786Z,97248.00
2023-11-24T01:29:51.653Z,97241.19
2023-11-24T01:32:18.453Z,97242.91
2023-11-24T01:34:45.283Z,97236.91
2023-11-24T01:37:12.128Z,97221.44
2023-11-24T01:39:38.975Z,97207.66
2023-11-24T01:42:06.098Z,97207.66
2023-11-24T01:44:33.178Z,97197.28
2023-11-24T01:46:59.866Z,97187.03
2023-11-24T01:49:28.569Z,97175.03
2023-11-24T01:51:56.987Z,97158.75
2023-11-24T01:54:27.266Z,97157.06
2023-11-24T01:56:58.883Z,97139.91
2023-11-24T01:59:26.033Z,97145.06
2023-11-24T02:01:52.726Z,97145.00
2023-11-24T02:04:22.373Z,97132.13
2023-11-24T02:06:49.709Z,97138.03
2023-11-24T02:09:17.309Z,97120.75
2023-11-24T02:11:45.138Z,97118.31
2023-11-24T02:14:11.951Z,97117.50
2023-11-24T02:16:38.623Z,97106.25
2023-11-24T02:19:05.504Z,97100.09
2023-11-24T02:21:32.240Z,97101.94
2023-11-24T02:23:58.953Z,97083.75
2023-11-24T02:26:26.758Z,97075.25
2023-11-24T02:28:54.477Z,97069.94
2023-11-24T02:31:21.301Z,97049.31
2023-11-24T02:33:51.166Z,97057.13
2023-11-24T02:36:22.528Z,97051.13
2023-11-24T02:38:51.355Z,97041.56
2023-11-24T02:41:18.406Z,97038.84
2023-11-24T02:43:46.149Z,97026.88
2023-11-24T02:46:16.424Z,97017.41
2023-11-24T02:48:44.660Z,97022.50
2023-11-24T02:51:12.456Z,97025.06
2023-11-24T02:53:40.559Z,97021.56
2023-11-24T02:56:09.205Z,97006.09
2023-11-24T02:58:37.926Z,97011.31
2023-11-24T03:01:07.081Z,97008.69
2023-11-24T03:03:34.003Z,96992.44
2023-11-24T03:06:09.649Z,96990.78
2023-11-24T03:08:36.511Z,96976.97
2023-11-24T03:11:07.733Z,96986.47
2023-11-24T03:13:35.622Z,96979.47
2023-11-24T03:16:07.637Z,96976.00
2023-11-24T03:18:35.008Z,96970.16
2023-11-24T03:21:02.115Z,96962.50
2023-11-24T03:23:28.884Z,96967.66
2023-11-24T03:25:55.497Z,96956.56
2023-11-24T03:28:22.220Z,96961.50
2023-11-24T03:30:49.031Z,96952.09
2023-11-24T03:33:16.913Z,96954.69
2023-11-24T03:35:43.700Z,96949.38
2023-11-24T03:38:10.491Z,96943.31
2023-11-24T03:40:37.713Z,96939.22
2023-11-24T03:43:04.574Z,96945.94
2023-11-24T03:45:31.502Z,96944.22
2023-11-24T03:47:58.407Z,96928.91
2023-11-24T03:50:25.220Z,96936.56
2023-11-24T03:52:52.060Z,96923.66
2023-11-24T03:55:18.834Z,96915.94
2023-11-24T03:57:46.378Z,96903.13
2023-11-24T04:00:14.758Z,96906.47
2023-11-24T04:02:43.087Z,96888.50
2023-11-24T04:05:12.234Z,96907.22
2023-11-24T04:07:40.541Z,96914.81
2023-11-24T04:10:08.736Z,96922.47
2023-11-24T04:12:35.637Z,96928.44
2023-11-24T04:15:02.754Z,96924.97
2023-11-24T04:17:29.492Z,96922.38
2023-11-24T04:19:56.338Z,96933.59
2023-11-24T04:22:23.084Z,96941.28
2023-11-24T04:24:49.778Z,96943.00
2023-11-24T04:27:16.486Z,96948.16
2023-11-24T04:29:43.145Z,96941.41
2023-11-24T04:32:10.852Z,96953.41
2023-11-24T04:34:37.579Z,96946.56
2023-11-24T04:37:04.641Z,96958.56
2023-11-24T04:39:31.381Z,96949.06
2023-11-24T04:41:58.068Z,96946.47
2023-11-24T04:44:24.701Z,96949.97
2023-11-24T04:46:51.485Z,96946.47
2023-11-24T04:49:18.982Z,96967.94
2023-11-24T04:51:46.896Z,96963.72
2023-11-24T04:54:13.666Z,96960.13
2023-11-24T04:56:40.675Z,96969.69
2023-11-24T04:59:07.602Z,96984.56
2023-11-24T05:01:34.462Z,96988.97
2023-11-24T05:04:01.671Z,97007.09
2023-11-24T05:06:28.654Z,97008.81
2023-11-24T05:08:55.465Z,97011.56
2023-11-24T05:11:22.877Z,96992.91
2023-11-24T05:13:50.618Z,96992.91
2023-11-24T05:16:18.197Z,96986.13
2023-11-24T05:18:45.373Z,96982.75
2023-11-24T05:21:12.084Z,96975.88
2023-11-24T05:23:39.109Z,96964.06
2023-11-24T05:26:06.061Z,96959.63
2023-11-24T05:28:34.396Z,96932.84
2023-11-24T05:31:01.118Z,96935.41
2023-11-24T05:33:27.807Z,96934.56
2023-11-24T05:35:54.458Z,96928.53
2023-11-24T05:38:21.139Z,96920.78
2023-11-24T05:40:47.834Z,96938.00
2023-11-24T05:43:14.678Z,96943.00
2023-11-24T05:45:41.397Z,96947.38
2023-11-24T05:48:08.109Z,96939.59
2023-11-24T05:50:34.886Z,96921.56
2023-11-24T05:53:01.620Z,96914.72
2023-11-24T05:55:28.389Z,96918.13
2023-11-24T05:57:55.192Z,96905.25
2023-11-24T06:00:21.902Z,96910.41
2023-11-24T06:02:48.803Z,96920.72
2023-11-24T06:05:17.297Z,96927.53
2023-11-24T06:07:44.172Z,96912.91
2023-11-24T06:10:11.225Z,96915.78
2023-11-24T06:12:38.596Z,96912.06
2023-11-24T06:15:06.284Z,96909.63
2023-11-24T06:17:33.196Z,96921.75
2023-11-24T06:20:00.009Z,96939.09
2023-11-24T06:22:26.719Z,96939.00
2023-11-24T06:24:54.927Z,96936.47
2023-11-24T06:27:21.819Z,96934.81
2023-11-24T06:29:49.096Z,96936.53
2023-11-24T06:32:15.813Z,96921.16
2023-11-24T06:34:43.260Z,96933.16
2023-11-24T06:37:10.127Z,96938.22
2023-11-24T06:39:37.040Z,96945.03
2023-11-24T06:42:05.844Z,96946.03
2023-11-24T06:44:32.809Z,96952.69
2023-11-24T06:47:02.196Z,96961.28
2023-11-24T06:49:31.029Z,96969.97
2023-11-24T06:52:00.013Z,96969.00
2023-11-24T06:54:26.711Z,96974.94
2023-11-24T06:56:53.369Z,96963.78
2023-11-24T06:59:20.034Z,96962.84
2023-11-24T07:01:46.790Z,96949.22
2023-11-24T07:04:13.606Z,96955.28
2023-11-24T07:06:40.664Z,96955.97
2023-11-24T07:09:10.329Z,96966.28
2023-11-24T07:11:38.243Z,96966.44
2023-11-24T07:14:04.901Z,96973.16
2023-11-24T07:16:31.910Z,96967.28
2023-11-24T07:18:59.528Z,96981.03
2023-11-24T07:21:26.760Z,96973.25
2023-11-24T07:23:53.399Z,96968.94
2023-11-24T07:26:20.620Z,96962.19
2023-11-24T07:28:47.366Z,96953.63
2023-11-24T07:31:16.254Z,96954.38
2023-11-24T07:33:43.102Z,96960.34
2023-11-24T07:36:13.486Z,96956.88
2023-11-24T07:38:40.585Z,96949.28
2023-11-24T07:41:09.380Z,96956.13
2023-11-24T07:43:36.415Z,96941.34
2023-11-24T07:46:08.295Z,96934.56
2023-11-24T07:48:35.485Z,96955.97
2023-11-24T07:51:07.016Z,96953.31
2023-11-24T07:53:34.615Z,96968.78
2023-11-24T07:56:01.777Z,96967.97
2023-11-24T07:58:31.660Z,96989.41
2023-11-24T08:00:58.482Z,96993.78
2023-11-24T08:03:25.862Z,96974.09
2023-11-24T08:05:53.820Z,96966.28
2023-11-24T08:08:21.619Z,96976.44
2023-11-24T08:10:48.412Z,96971.44
2023-11-24T08:13:15.298Z,96960.16
2023-11-24T08:15:42.209Z,96966.97
2023-11-24T08:18:09.029Z,96940.19
2023-11-24T08:20:35.750Z,96943.53
2023-11-24T08:23:02.411Z,96948.75
2023-11-24T08:25:29.079Z,96952.09
2023-11-24T08:27:55.837Z,96953.75
2023-11-24T08:30:22.532Z,96952.88
2023-11-24T08:32:50.665Z,96956.22
2023-11-24T08:35:17.990Z,96966.53
2023-11-24T08:37:44.844Z,96973.25
2023-11-24T08:40:12.493Z,96963.72
2023-11-24T08:42:40.145Z,96964.53
2023-11-24T08:45:08.066Z,96962.72
2023-11-24T08:47:34.764Z,96944.59
2023-11-24T08:50:01.734Z,96949.66
2023-11-24T08:52:28.517Z,96959.38
2023-11-24T08:54:55.486Z,96955.13
2023-11-24T08:57:22.145Z,96948.31
2023-11-24T08:59:48.835Z,96948.41
2023-11-24T09:02:15.759Z,96951.94
2023-11-24T09:04:42.559Z,96953.69
2023-11-24T09:07:10.508Z,96947.56
2023-11-24T09:09:38.430Z,96955.06
2023-11-24T09:12:07.222Z,96961.66
2023-11-24T09:14:39.825Z,96954.78
2023-11-24T09:17:06.743Z,96955.59
2023-11-24T09:19:35.334Z,96976.22
2023-11-24T09:22:04.859Z,96957.28
2023-11-24T09:24:31.637Z,96950.44
2023-11-24T09:26:58.386Z,96951.34
2023-11-24T09:29:27.052Z,96947.84
2023-11-24T09:31:53.836Z,96944.47
2023-11-24T09:34:20.697Z,96927.28
2023-11-24T09:36:47.899Z,96922.97
2023-11-24T09:39:22.284Z,96911.59
2023-11-24T09:41:52.495Z,96901.13
2023-11-24T09:44:19.853Z,96892.41
2023-11-24T09:46:52.057Z,96878.53
2023-11-24T09:49:21.858Z,96874.00
2023-11-24T09:51:49.318Z,96872.13
2023-11-24T09:54:19.098Z,96858.31
2023-11-24T09:56:46.078Z,96865.72
2023-11-24T09:59:14.752Z,96859.44
2023-11-24T10:01:41.892Z,96856.59
2023-11-24T10:04:08.986Z,96847.84
2023-11-24T10:06:40.676Z,96849.28
2023-11-24T10:09:07.746Z,96847.63
2023-11-24T10:11:36.941Z,96836.13
2023-11-24T10:14:05.761Z,96846.44
2023-11-24T10:16:32.703Z,96836.97
2023-11-24T10:19:01.702Z,96830.22
2023-11-24T10:21:32.688Z,96826.81
2023-11-24T10:24:02.336Z,96837.06
2023-11-24T10:26:29.423Z,96837.06
2023-11-24T10:28:57.122Z,96836.28
2023-11-24T10:31:24.234Z,96825.97
2023-11-24T10:33:52.491Z,96820.81
2023-11-24T10:36:24.562Z,96814.00
2023-11-24T10:39:01.032Z,96816.66
2023-11-24T10:41:30.259Z,96816.50
2023-11-24T10:43:58.068Z,96811.06
2023-11-24T10:46:29.163Z,96822.06
2023-11-24T10:49:15.587Z,96803.00
2023-11-24T10:52:01.362Z,96804.31
2023-11-24T10:55:03.649Z,96809.41
2023-11-24T10:57:31.998Z,96807.56
2023-11-24T11:00:04.604Z,96807.56
2023-11-24T11:02:32.265Z,96811.00
2023-11-24T11:05:08.718Z,96802.41
2023-11-24T11:07:54.490Z,96801.50
2023-11-24T11:10:30.136Z,96792.84
2023-11-24T11:12:59.044Z,96783.34
2023-11-24T11:15:26.872Z,96790.91
2023-11-24T11:18:15.214Z,96784.03
2023-11-24T11:20:43.026Z,96776.81
2023-11-24T11:23:10.634Z,96767.25
2023-11-24T11:25:38.480Z,96760.25
2023-11-24T11:28:20.868Z,96755.75
2023-11-24T11:30:48.812Z,96743.59
2023-11-24T11:33:15.607Z,96746.97
2023-11-24T11:35:43.668Z,96740.91
2023-11-24T11:38:15.286Z,96741.66
2023-11-24T11:40:45.979Z,96736.56
2023-11-24T11:43:17.081Z,96728.00
2023-11-24T11:45:51.437Z,96723.59
2023-11-24T11:48:18.975Z,96715.84
2023-11-24T11:51:03.333Z,96700.06
2023-11-24T11:53:30.890Z,96706.72
2023-11-24T11:55:57.967Z,96704.78
2023-11-24T11:58:26.372Z,96699.44
2023-11-24T12:00:54.853Z,96693.47
2023-11-24T12:03:24.241Z,96684.69
2023-11-24T12:05:55.144Z,96689.94
2023-11-24T12:08:25.117Z,96681.19
2023-11-24T12:10:51.750Z,96668.19
2023-11-24T12:13:18.727Z,96668.38
2023-11-24T12:15:45.605Z,96658.59
2023-11-24T12:18:16.196Z,96653.34
2023-11-24T12:20:43.185Z,96649.16
2023-11-24T12:23:10.678Z,96645.69
2023-11-24T12:25:40.865Z,96634.59
2023-11-24T12:28:12.032Z,96628.59
2023-11-24T12:30:43.197Z,96622.50
2023-11-24T12:33:16.880Z,96624.16
2023-11-24T12:35:55.070Z,96624.16
2023-11-24T12:38:22.995Z,96623.25
2023-11-24T12:40:52.406Z,96614.59
2023-11-24T12:43:20.344Z,96612.81
2023-11-24T12:45:53.114Z,96596.50
2023-11-24T12:48:20.616Z,96597.50
2023-11-24T12:50:49.048Z,96595.00
2023-11-24T12:53:16.463Z,96607.00
2023-11-24T12:55:43.667Z,96600.81
2023-11-24T12:58:12.209Z,96600.72
2023-11-24T13:00:39.514Z,96590.41
2023-11-24T13:03:06.741Z,96596.31
2023-11-24T13:05:37.357Z,96586.78
2023-11-24T13:08:04.214Z,96586.72
2023-11-24T13:10:32.757Z,96590.78
2023-11-24T13:13:03.184Z,96581.56
2023-11-24T13:15:30.264Z,96583.97
2023-11-24T13:17:57.415Z,96567.53
2023-11-24T13:20:29.996Z,96576.97
2023-11-24T13:22:57.133Z,96575.09
2023-11-24T13:25:30.482Z,96544.09
2023-11-24T13:27:58.038Z,96550.94
2023-11-24T13:30:26.916Z,96552.69
2023-11-24T13:32:54.448Z,96539.75
2023-11-24T13:35:22.043Z,96556.09
2023-11-24T13:37:51.126Z,96561.47
2023-11-24T13:40:21.785Z,96566.63
2023-11-24T13:42:48.916Z,96572.69
2023-11-24T13:45:18.188Z,96562.53
2023-11-24T13:47:46.165Z,96574.53
2023-11-24T13:50:15.238Z,96579.88
2023-11-24T13:52:44.286Z,96583.28
2023-11-24T13:55:13.089Z,96581.72
2023-11-24T13:57:40.180Z,96588.66
2023-11-24T14:00:12.099Z,96582.66
2023-11-24T14:02:39.283Z,96588.84
2023-11-24T14:05:06.833Z,96601.75
2023-11-24T14:07:33.499Z,96592.44
2023-11-24T14:10:00.257Z,96596.19
2023-11-24T14:12:27.895Z,96596.56
2023-11-24T14:14:54.682Z,96595.91
2023-11-24T14:17:21.838Z,96594.47
2023-11-24T14:19:48.560Z,96591.13
2023-11-24T14:22:16.919Z,96588.53
2023-11-24T14:24:44.884Z,96594.00
2023-11-24T14:27:14.183Z,96601.16
2023-11-24T14:29:41.492Z,96606.41
2023-11-24T14:32:08.835Z,96620.50
2023-11-24T14:34:36.173Z,96636.09
2023-11-24T14:37:03.179Z,96622.06
2023-11-24T14:39:34.229Z,96616.88
2023-11-24T14:42:01.089Z,96607.47
2023-11-24T14:44:28.566Z,96611.06
2023-11-24T14:46:55.580Z,96620.72
2023-11-24T14:49:22.452Z,96612.06
2023-11-24T14:51:50.300Z,96554.47
2023-11-24T14:54:18.232Z,96562.44
2023-11-24T14:56:46.817Z,96568.63
2023-11-24T14:59:13.580Z,96579.22
2023-11-24T15:01:40.968Z,96592.31
2023-11-24T15:04:17.899Z,96589.88
2023-11-24T15:06:51.563Z,96598.38
2023-11-24T15:09:19.943Z,96580.69
2023-11-24T15:11:52.382Z,96580.75
2023-11-24T15:14:32.657Z,96585.00
2023-11-24T15:17:02.852Z,96590.44
2023-11-24T15:19:31.114Z,96598.16
2023-11-24T15:22:04.111Z,96605.41
2023-11-24T15:24:34.163Z,96595.00
2023-11-24T15:27:09.001Z,96583.19
2023-11-24T15:29:38.820Z,96578.22
2023-11-24T15:32:08.900Z,96582.63
2023-11-24T15:34:36.470Z,96588.69
2023-11-24T15:37:04.266Z,96587.06
2023-11-24T15:39:41.251Z,96584.47
2023-11-24T15:42:16.010Z,96582.78
2023-11-24T15:44:42.900Z,96579.63
2023-11-24T15:47:11.706Z,96575.66
2023-11-24T15:49:42.614Z,96566.53
2023-11-24T15:52:10.303Z,96566.78
2023-11-24T15:54:37.993Z,96580.56
2023-11-24T15:57:04.933Z,96580.84
2023-11-24T15:59:35.328Z,96587.81
2023-11-24T16:02:04.277Z,96571.00
2023-11-24T16:04:33.843Z,96578.03
2023-11-24T16:07:04.436Z,96568.78
2023-11-24T16:09:32.129Z,96573.19
2023-11-24T16:12:14.041Z,96584.41
2023-11-24T16:14:41.933Z,96578.59
2023-11-24T16:17:09.730Z,96564.19
2023-11-24T16:19:37.088Z,96557.56
2023-11-24T16:22:05.705Z,96563.69
2023-11-24T16:24:32.745Z,96580.41
2023-11-24T16:27:00.399Z,96601.75
2023-11-24T16:29:27.371Z,96604.34
2023-11-24T16:31:55.436Z,96604.66
2023-11-24T16:34:26.892Z,96609.81
2023-11-24T16:36:57.298Z,96609.81
2023-11-24T16:39:24.583Z,96608.97
2023-11-24T16:41:54.949Z,96615.91
2023-11-24T16:44:22.408Z,96614.97
2023-11-24T16:47:02.209Z,96606.56
2023-11-24T16:49:32.418Z,96613.59
2023-11-24T16:52:00.040Z,96620.59
2023-11-24T16:54:27.441Z,96614.75
2023-11-24T16:56:54.514Z,96619.91
2023-11-24T16:59:22.277Z,96611.44
2023-11-24T17:01:50.677Z,96606.19
2023-11-24T17:04:17.590Z,96601.97
2023-11-24T17:06:48.674Z,96611.50
2023-11-24T17:09:16.914Z,96622.56
2023-11-24T17:11:46.931Z,96614.84
2023-11-24T17:14:18.693Z,96608.00
2023-11-24T17:16:48.555Z,96608.09
2023-11-24T17:19:16.901Z,96596.31
2023-11-24T17:21:46.242Z,96595.47
2023-11-24T17:24:13.469Z,96599.09
2023-11-24T17:26:41.755Z,96596.69
2023-11-24T17:29:14.366Z,96597.78
2023-11-24T17:31:43.898Z,96591.00
2023-11-24T17:34:13.273Z,96587.75
2023-11-24T17:36:40.120Z,96578.31
2023-11-24T17:39:10.413Z,96569.75
2023-11-24T17:41:37.688Z,96570.50
2023-11-24T17:44:06.149Z,96570.59
2023-11-24T17:46:37.078Z,96570.66
2023-11-24T17:49:06.875Z,96574.03
2023-11-24T17:51:34.068Z,96557.88
2023-11-24T17:54:05.113Z,96575.97
2023-11-24T17:56:31.962Z,96574.28
2023-11-24T17:58:58.655Z,96576.88
2023-11-24T18:01:25.546Z,96575.81
2023-11-24T18:03:52.977Z,96564.50
2023-11-24T18:06:19.893Z,96570.59
2023-11-24T18:08:46.686Z,96569.91
2023-11-24T18:11:13.348Z,96569.97
2023-11-24T18:13:40.052Z,96564.75
2023-11-24T18:16:07.763Z,96562.19
2023-11-24T18:18:34.682Z,96555.38
2023-11-24T18:21:02.218Z,96545.81
2023-11-24T18:23:30.390Z,96533.94
2023-11-24T18:25:57.120Z,96551.19
2023-11-24T18:28:24.000Z,96558.69
2023-11-24T18:30:50.894Z,96558.69
2023-11-24T18:33:17.633Z,96566.31
2023-11-24T18:35:47.161Z,96568.84
2023-11-24T18:38:13.947Z,96564.75
2023-11-24T18:40:40.701Z,96557.78
2023-11-24T18:43:07.593Z,96544.16
2023-11-24T18:45:35.622Z,96540.75
2023-11-24T18:48:02.540Z,96540.75
2023-11-24T18:50:29.611Z,96544.06
2023-11-24T18:52:56.312Z,96555.22
2023-11-24T18:55:23.007Z,96548.31
2023-11-24T18:57:50.929Z,96553.22
2023-11-24T19:00:20.956Z,96553.41
2023-11-24T19:02:49.215Z,96543.09
2023-11-24T19:05:17.504Z,96547.56
2023-11-24T19:07:44.450Z,96541.59
2023-11-24T19:10:18.570Z,96535.44
2023-11-24T19:12:46.852Z,96534.63
2023-11-24T19:15:13.577Z,96542.41
2023-11-24T19:17:40.318Z,96530.53
2023-11-24T19:20:08.730Z,96526.97
2023-11-24T19:22:36.272Z,96524.50
2023-11-24T19:25:03.373Z,96526.31
2023-11-24T19:27:30.190Z,96528.88
2023-11-24T19:29:58.985Z,96527.94
2023-11-24T19:32:26.092Z,96523.72
2023-11-24T19:34:54.095Z,96514.50
2023-11-24T19:37:21.321Z,96506.84
2023-11-24T19:39:49.644Z,96499.03
2023-11-24T19:42:19.761Z,96500.13
2023-11-24T19:44:48.172Z,96513.72
2023-11-24T19:47:14.812Z,96516.31
2023-11-24T19:49:41.557Z,96527.69
2023-11-24T19:52:10.632Z,96534.66
2023-11-24T19:54:37.387Z,96530.50
2023-11-24T19:57:05.427Z,96539.19
2023-11-24T19:59:32.218Z,96541.78
2023-11-24T20:02:00.099Z,96537.56
2023-11-24T20:04:28.851Z,96529.06
2023-11-24T20:06:55.651Z,96522.28
2023-11-24T20:09:23.841Z,96512.88
2023-11-24T20:11:53.652Z,96503.34
2023-11-24T20:14:20.955Z,96504.25
2023-11-24T20:16:48.977Z,96511.22
2023-11-24T20:19:16.061Z,96511.22
2023-11-24T20:21:43.831Z,96501.81
2023-11-24T20:24:11.750Z,96501.97
2023-11-24T20:26:39.338Z,96509.53
2023-11-24T20:29:05.989Z,96514.59
2023-11-24T20:31:32.908Z,96524.09
2023-11-24T20:33:59.668Z,96518.78
2023-11-24T20:36:26.331Z,96507.81
2023-11-24T20:38:58.402Z,96500.91
2023-11-24T20:41:25.143Z,96503.66
2023-11-24T20:43:51.950Z,96497.66
2023-11-24T20:46:18.800Z,96505.22
2023-11-24T20:48:46.862Z,96501.97
2023-11-24T20:51:14.582Z,96502.38
2023-11-24T20:53:41.312Z,96508.34
2023-11-24T20:56:09.727Z,96515.41
2023-11-24T20:58:37.071Z,96524.84
2023-11-24T21:01:05.096Z,96534.31
2023-11-24T21:03:31.875Z,96535.22
2023-11-24T21:05:58.808Z,96536.97
2023-11-24T21:08:25.590Z,96542.94
2023-11-24T21:10:52.476Z,96549.81
2023-11-24T21:13:20.205Z,96542.94
2023-11-24T21:15:47.026Z,96543.75
2023-11-24T21:18:13.939Z,96546.28
2023-11-24T21:20:41.673Z,96541.94
2023-11-24T21:23:08.517Z,96540.91
2023-11-24T21:25:35.246Z,96551.34
2023-11-24T21:28:02.033Z,96559.06
2023-11-24T21:30:29.087Z,96555.50
2023-11-24T21:32:57.581Z,96570.84
2023-11-24T21:35:24.434Z,96574.25
2023-11-24T21:37:51.174Z,96585.41
2023-11-24T21:40:18.972Z,96588.56
2023-11-24T21:42:45.986Z,96586.13
2023-11-24T21:45:13.980Z,96591.16
2023-11-24T21:47:44.382Z,96596.44
2023-11-24T21:50:14.617Z,96593.84
2023-11-24T21:52:42.405Z,96601.72
2023-11-24T21:55:11.152Z,96598.25
2023-11-24T21:57:38.039Z,96596.66
2023-11-24T22:00:09.662Z,96606.00
2023-11-24T22:02:40.989Z,96605.22
2023-11-24T22:05:10.533Z,96611.13
2023-11-24T22:07:39.939Z,96618.00
2023-11-24T22:10:07.903Z,96619.75
2023-11-24T22:12:37.484Z,96615.66
2023-11-24T22:15:05.806Z,96619.97
2023-11-24T22:17:36.738Z,96625.97
2023-11-24T22:20:11.530Z,96620.81
2023-11-24T22:22:40.447Z,96622.47
2023-11-24T22:25:07.857Z,96622.56
2023-11-24T22:27:35.524Z,96621.78
2023-11-24T22:30:06.280Z,96622.69
2023-11-24T22:32:34.003Z,96631.22
2023-11-24T22:35:01.155Z,96619.28
2023-11-24T22:37:28.499Z,96610.97
2023-11-24T22:39:55.265Z,96609.16
2023-11-24T22:42:23.522Z,96600.97
2023-11-24T22:44:51.493Z,96607.63
2023-11-24T22:47:19.002Z,96605.06
2023-11-24T22:49:46.319Z,96603.41
2023-11-24T22:52:13.413Z,96591.47
2023-11-24T22:54:40.492Z,96595.00
2023-11-24T22:57:07.715Z,96592.34
2023-11-24T22:59:34.387Z,96590.69
2023-11-24T23:02:01.466Z,96586.44
2023-11-24T23:04:28.353Z,96585.69
2023-11-24T23:06:54.978Z,96576.38
2023-11-24T23:09:23.123Z,96576.38
2023-11-24T23:11:50.236Z,96576.31
2023-11-24T23:14:17.014Z,96572.06
2023-11-24T23:16:45.336Z,96564.34
2023-11-24T23:19:13.484Z,96560.09
2023-11-24T23:21:42.292Z,96565.25
2023-11-24T23:24:12.278Z,96558.44
2023-11-24T23:26:39.853Z,96561.78
2023-11-24T23:29:08.763Z,96555.97
2023-11-24T23:31:35.634Z,96559.28
2023-11-24T23:34:02.802Z,96552.47
2023-11-24T23:36:29.857Z,96555.13
2023-11-24T23:38:56.752Z,96546.50
2023-11-24T23:41:24.122Z,96544.84
2023-11-24T23:43:51.189Z,96547.56
2023-11-24T23:46:18.318Z,96545.81
2023-11-24T23:48:45.294Z,96549.22
2023-11-24T23:51:12.514Z,96542.41
2023-11-24T23:53:41.045Z,96542.50
2023-11-24T23:56:08.557Z,96538.19
2023-11-24T23:58:37.561Z,96537.34
